sensor_id;sensor_type;location;lat;lon;timestamp;P1;durP1;ratioP1;P2;durP2;ratioP2
44694;SDS011;32845;59.422;17.930;2024-02-21T00:00:38;10.07;;;4.05;;
44694;SDS011;32845;59.422;17.930;2024-02-21T00:05:09;7.75;;;4.38;;
44694;SDS011;32845;59.422;17.930;2024-02-21T00:09:40;6.35;;;3.40;;
44694;SDS011;32845;59.422;17.930;2024-02-21T00:14:10;6.15;;;3.75;;
44694;SDS011;32845;59.422;17.930;2024-02-21T00:18:41;9.75;;;4.18;;
44694;SDS011;32845;59.422;17.930;2024-02-21T00:23:12;7.50;;;3.50;;
44694;SDS011;32845;59.422;17.930;2024-02-21T00:27:42;6.43;;;3.33;;
44694;SDS011;32845;59.422;17.930;2024-02-21T00:32:13;6.53;;;3.40;;
44694;SDS011;32845;59.422;17.930;2024-02-21T00:36:44;4.85;;;2.97;;
44694;SDS011;32845;59.422;17.930;2024-02-21T00:41:14;5.45;;;2.47;;
44694;SDS011;32845;59.422;17.930;2024-02-21T00:45:45;4.68;;;2.65;;
44694;SDS011;32845;59.422;17.930;2024-02-21T00:50:16;8.38;;;2.67;;
44694;SDS011;32845;59.422;17.930;2024-02-21T00:54:46;5.25;;;2.40;;
44694;SDS011;32845;59.422;17.930;2024-02-21T00:59:19;5.95;;;2.53;;
44694;SDS011;32845;59.422;17.930;2024-02-21T01:03:49;5.07;;;2.42;;
44694;SDS011;32845;59.422;17.930;2024-02-21T01:08:23;5.93;;;2.83;;
44694;SDS011;32845;59.422;17.930;2024-02-21T01:12:53;4.88;;;2.65;;
44694;SDS011;32845;59.422;17.930;2024-02-21T01:17:24;4.90;;;2.40;;
44694;SDS011;32845;59.422;17.930;2024-02-21T01:21:54;5.75;;;2.83;;
44694;SDS011;32845;59.422;17.930;2024-02-21T01:26:25;8.10;;;3.47;;
44694;SDS011;32845;59.422;17.930;2024-02-21T01:30:56;7.43;;;3.83;;
44694;SDS011;32845;59.422;17.930;2024-02-21T01:35:27;8.95;;;3.92;;
44694;SDS011;32845;59.422;17.930;2024-02-21T01:39:57;8.60;;;4.32;;
44694;SDS011;32845;59.422;17.930;2024-02-21T01:44:28;11.75;;;4.32;;
44694;SDS011;32845;59.422;17.930;2024-02-21T01:48:59;10.07;;;4.20;;
44694;SDS011;32845;59.422;17.930;2024-02-21T01:53:31;10.93;;;4.10;;
44694;SDS011;32845;59.422;17.930;2024-02-21T01:58:05;9.00;;;3.95;;
44694;SDS011;32845;59.422;17.930;2024-02-21T02:02:36;9.70;;;4.35;;
44694;SDS011;32845;59.422;17.930;2024-02-21T02:07:08;10.68;;;4.10;;
44694;SDS011;32845;59.422;17.930;2024-02-21T02:11:38;10.65;;;4.68;;
44694;SDS011;32845;59.422;17.930;2024-02-21T02:16:09;11.48;;;3.88;;
44694;SDS011;32845;59.422;17.930;2024-02-21T02:20:40;22.33;;;4.65;;
44694;SDS011;32845;59.422;17.930;2024-02-21T02:25:10;9.13;;;4.20;;
44694;SDS011;32845;59.422;17.930;2024-02-21T02:29:42;11.35;;;4.88;;
44694;SDS011;32845;59.422;17.930;2024-02-21T02:34:12;11.25;;;4.47;;
44694;SDS011;32845;59.422;17.930;2024-02-21T02:38:43;15.38;;;5.50;;
44694;SDS011;32845;59.422;17.930;2024-02-21T02:43:13;14.68;;;5.38;;
44694;SDS011;32845;59.422;17.930;2024-02-21T02:47:44;12.43;;;5.63;;
44694;SDS011;32845;59.422;17.930;2024-02-21T02:52:16;13.23;;;5.32;;
44694;SDS011;32845;59.422;17.930;2024-02-21T02:56:49;11.85;;;4.85;;
44694;SDS011;32845;59.422;17.930;2024-02-21T03:01:22;14.43;;;5.13;;
44694;SDS011;32845;59.422;17.930;2024-02-21T03:05:53;12.10;;;4.80;;
44694;SDS011;32845;59.422;17.930;2024-02-21T03:10:23;17.88;;;5.38;;
44694;SDS011;32845;59.422;17.930;2024-02-21T03:14:54;16.73;;;5.70;;
44694;SDS011;32845;59.422;17.930;2024-02-21T03:19:25;15.30;;;4.90;;
44694;SDS011;32845;59.422;17.930;2024-02-21T03:23:56;10.98;;;4.78;;
44694;SDS011;32845;59.422;17.930;2024-02-21T03:28:26;11.48;;;4.15;;
44694;SDS011;32845;59.422;17.930;2024-02-21T03:32:57;11.07;;;4.13;;
44694;SDS011;32845;59.422;17.930;2024-02-21T03:37:27;9.32;;;3.33;;
44694;SDS011;32845;59.422;17.930;2024-02-21T03:41:58;8.35;;;3.88;;
44694;SDS011;32845;59.422;17.930;2024-02-21T03:46:34;7.82;;;3.63;;
44694;SDS011;32845;59.422;17.930;2024-02-21T03:51:05;8.98;;;3.15;;
44694;SDS011;32845;59.422;17.930;2024-02-21T03:55:36;6.80;;;3.05;;
44694;SDS011;32845;59.422;17.930;2024-02-21T04:00:06;6.70;;;2.95;;
44694;SDS011;32845;59.422;17.930;2024-02-21T04:04:44;8.20;;;2.80;;
44694;SDS011;32845;59.422;17.930;2024-02-21T04:09:17;4.47;;;2.42;;
44694;SDS011;32845;59.422;17.930;2024-02-21T04:13:47;7.65;;;2.45;;
44694;SDS011;32845;59.422;17.930;2024-02-21T04:18:20;6.07;;;2.42;;
44694;SDS011;32845;59.422;17.930;2024-02-21T04:22:50;9.18;;;2.28;;
44694;SDS011;32845;59.422;17.930;2024-02-21T04:27:21;5.35;;;2.72;;
44694;SDS011;32845;59.422;17.930;2024-02-21T04:31:52;5.15;;;2.20;;
44694;SDS011;32845;59.422;17.930;2024-02-21T04:36:22;10.63;;;2.10;;
44694;SDS011;32845;59.422;17.930;2024-02-21T04:40:54;8.88;;;2.35;;
44694;SDS011;32845;59.422;17.930;2024-02-21T04:45:28;4.85;;;1.73;;
44694;SDS011;32845;59.422;17.930;2024-02-21T04:49:58;9.68;;;2.08;;
44694;SDS011;32845;59.422;17.930;2024-02-21T04:54:29;6.97;;;1.92;;
44694;SDS011;32845;59.422;17.930;2024-02-21T04:58:59;4.95;;;2.00;;
44694;SDS011;32845;59.422;17.930;2024-02-21T05:03:30;8.25;;;1.63;;
44694;SDS011;32845;59.422;17.930;2024-02-21T05:08:01;7.50;;;2.05;;
44694;SDS011;32845;59.422;17.930;2024-02-21T05:12:32;4.60;;;2.10;;
44694;SDS011;32845;59.422;17.930;2024-02-21T05:17:03;3.63;;;1.73;;
44694;SDS011;32845;59.422;17.930;2024-02-21T05:21:34;8.85;;;3.03;;
44694;SDS011;32845;59.422;17.930;2024-02-21T05:26:05;3.05;;;1.90;;
44694;SDS011;32845;59.422;17.930;2024-02-21T05:30:36;8.82;;;1.95;;
44694;SDS011;32845;59.422;17.930;2024-02-21T05:35:07;5.93;;;1.98;;
44694;SDS011;32845;59.422;17.930;2024-02-21T05:39:37;6.78;;;1.95;;
44694;SDS011;32845;59.422;17.930;2024-02-21T05:44:08;7.18;;;1.90;;
44694;SDS011;32845;59.422;17.930;2024-02-21T05:48:39;7.43;;;2.00;;
44694;SDS011;32845;59.422;17.930;2024-02-21T05:53:09;11.82;;;2.50;;
44694;SDS011;32845;59.422;17.930;2024-02-21T05:57:41;9.15;;;2.10;;
44694;SDS011;32845;59.422;17.930;2024-02-21T06:02:11;10.82;;;2.50;;
44694;SDS011;32845;59.422;17.930;2024-02-21T06:06:42;14.65;;;2.63;;
44694;SDS011;32845;59.422;17.930;2024-02-21T06:11:13;10.02;;;2.33;;
44694;SDS011;32845;59.422;17.930;2024-02-21T06:15:45;7.32;;;2.60;;
44694;SDS011;32845;59.422;17.930;2024-02-21T06:20:16;6.50;;;2.45;;
44694;SDS011;32845;59.422;17.930;2024-02-21T06:24:46;12.27;;;3.10;;
44694;SDS011;32845;59.422;17.930;2024-02-21T06:29:17;11.40;;;2.92;;
44694;SDS011;32845;59.422;17.930;2024-02-21T06:33:48;10.55;;;2.70;;
44694;SDS011;32845;59.422;17.930;2024-02-21T06:38:18;8.77;;;2.90;;
44694;SDS011;32845;59.422;17.930;2024-02-21T06:42:50;7.22;;;3.15;;
44694;SDS011;32845;59.422;17.930;2024-02-21T06:47:20;8.32;;;3.05;;
44694;SDS011;32845;59.422;17.930;2024-02-21T06:51:51;13.27;;;3.58;;
44694;SDS011;32845;59.422;17.930;2024-02-21T06:56:24;16.75;;;3.60;;
44694;SDS011;32845;59.422;17.930;2024-02-21T07:01:01;9.88;;;3.15;;
44694;SDS011;32845;59.422;17.930;2024-02-21T07:05:32;5.88;;;3.28;;
44694;SDS011;32845;59.422;17.930;2024-02-21T07:10:02;13.25;;;3.78;;
44694;SDS011;32845;59.422;17.930;2024-02-21T07:14:35;14.30;;;3.70;;
44694;SDS011;32845;59.422;17.930;2024-02-21T07:19:06;9.77;;;4.05;;
44694;SDS011;32845;59.422;17.930;2024-02-21T07:23:37;11.55;;;4.28;;
44694;SDS011;32845;59.422;17.930;2024-02-21T07:28:11;21.92;;;4.65;;
44694;SDS011;32845;59.422;17.930;2024-02-21T07:32:43;18.70;;;5.50;;
44694;SDS011;32845;59.422;17.930;2024-02-21T07:37:14;21.48;;;5.88;;
44694;SDS011;32845;59.422;17.930;2024-02-21T07:41:45;13.07;;;4.80;;
44694;SDS011;32845;59.422;17.930;2024-02-21T07:46:16;18.63;;;5.53;;
44694;SDS011;32845;59.422;17.930;2024-02-21T07:50:47;18.50;;;5.70;;
44694;SDS011;32845;59.422;17.930;2024-02-21T07:55:19;13.50;;;4.95;;
44694;SDS011;32845;59.422;17.930;2024-02-21T07:59:50;13.13;;;4.53;;
44694;SDS011;32845;59.422;17.930;2024-02-21T08:04:20;11.27;;;4.78;;
44694;SDS011;32845;59.422;17.930;2024-02-21T08:08:51;20.52;;;4.70;;
44694;SDS011;32845;59.422;17.930;2024-02-21T08:13:21;17.33;;;4.95;;
44694;SDS011;32845;59.422;17.930;2024-02-21T08:17:52;21.27;;;4.95;;
44694;SDS011;32845;59.422;17.930;2024-02-21T08:22:23;12.82;;;4.60;;
44694;SDS011;32845;59.422;17.930;2024-02-21T08:26:53;15.77;;;4.55;;
44694;SDS011;32845;59.422;17.930;2024-02-21T08:31:24;17.00;;;4.88;;
44694;SDS011;32845;59.422;17.930;2024-02-21T08:36:00;20.17;;;4.55;;
44694;SDS011;32845;59.422;17.930;2024-02-21T08:40:31;19.08;;;4.65;;
44694;SDS011;32845;59.422;17.930;2024-02-21T08:45:05;15.85;;;4.60;;
44694;SDS011;32845;59.422;17.930;2024-02-21T08:49:36;15.45;;;4.78;;
44694;SDS011;32845;59.422;17.930;2024-02-21T08:54:07;21.27;;;4.60;;
44694;SDS011;32845;59.422;17.930;2024-02-21T08:58:38;11.43;;;4.10;;
44694;SDS011;32845;59.422;17.930;2024-02-21T09:03:10;19.08;;;4.38;;
44694;SDS011;32845;59.422;17.930;2024-02-21T09:07:40;19.58;;;4.32;;
44694;SDS011;32845;59.422;17.930;2024-02-21T09:12:11;13.27;;;3.67;;
44694;SDS011;32845;59.422;17.930;2024-02-21T09:16:41;16.75;;;3.53;;
44694;SDS011;32845;59.422;17.930;2024-02-21T09:21:12;23.05;;;4.55;;
44694;SDS011;32845;59.422;17.930;2024-02-21T09:25:43;19.95;;;4.35;;
44694;SDS011;32845;59.422;17.930;2024-02-21T09:30:14;20.75;;;4.80;;
44694;SDS011;32845;59.422;17.930;2024-02-21T09:34:45;22.25;;;4.47;;
44694;SDS011;32845;59.422;17.930;2024-02-21T09:39:15;16.80;;;4.25;;
44694;SDS011;32845;59.422;17.930;2024-02-21T09:43:48;21.65;;;4.82;;
44694;SDS011;32845;59.422;17.930;2024-02-21T09:48:30;18.75;;;4.18;;
44694;SDS011;32845;59.422;17.930;2024-02-21T09:53:30;17.05;;;4.32;;
44694;SDS011;32845;59.422;17.930;2024-02-21T09:58:02;25.55;;;4.53;;
44694;SDS011;32845;59.422;17.930;2024-02-21T10:02:34;15.13;;;5.07;;
44694;SDS011;32845;59.422;17.930;2024-02-21T10:07:05;27.30;;;5.20;;
44694;SDS011;32845;59.422;17.930;2024-02-21T10:11:36;10.50;;;3.72;;
44694;SDS011;32845;59.422;17.930;2024-02-21T10:16:07;15.30;;;3.97;;
44694;SDS011;32845;59.422;17.930;2024-02-21T10:20:38;13.73;;;3.70;;
44694;SDS011;32845;59.422;17.930;2024-02-21T10:25:10;16.02;;;3.53;;
44694;SDS011;32845;59.422;17.930;2024-02-21T10:29:41;12.02;;;3.47;;
44694;SDS011;32845;59.422;17.930;2024-02-21T10:34:12;8.63;;;3.50;;
44694;SDS011;32845;59.422;17.930;2024-02-21T10:38:48;12.57;;;3.63;;
44694;SDS011;32845;59.422;17.930;2024-02-21T10:43:18;15.32;;;3.60;;
44694;SDS011;32845;59.422;17.930;2024-02-21T10:47:51;11.35;;;3.00;;
44694;SDS011;32845;59.422;17.930;2024-02-21T10:52:48;12.55;;;3.60;;
44694;SDS011;32845;59.422;17.930;2024-02-21T10:57:26;12.13;;;3.28;;
44694;SDS011;32845;59.422;17.930;2024-02-21T11:01:57;8.18;;;3.05;;
44694;SDS011;32845;59.422;17.930;2024-02-21T11:06:28;8.55;;;3.47;;
44694;SDS011;32845;59.422;17.930;2024-02-21T11:10:59;12.68;;;3.25;;
44694;SDS011;32845;59.422;17.930;2024-02-21T11:15:30;8.15;;;3.53;;
44694;SDS011;32845;59.422;17.930;2024-02-21T11:20:10;7.75;;;2.90;;
44694;SDS011;32845;59.422;17.930;2024-02-21T11:24:44;13.07;;;3.15;;
44694;SDS011;32845;59.422;17.930;2024-02-21T11:29:15;8.68;;;3.22;;
44694;SDS011;32845;59.422;17.930;2024-02-21T11:33:54;10.87;;;3.17;;
44694;SDS011;32845;59.422;17.930;2024-02-21T11:38:27;7.57;;;3.13;;
44694;SDS011;32845;59.422;17.930;2024-02-21T11:42:58;11.52;;;3.22;;
44694;SDS011;32845;59.422;17.930;2024-02-21T11:47:29;6.28;;;2.72;;
44694;SDS011;32845;59.422;17.930;2024-02-21T11:52:00;8.60;;;2.88;;
44694;SDS011;32845;59.422;17.930;2024-02-21T11:56:34;6.45;;;2.60;;
44694;SDS011;32845;59.422;17.930;2024-02-21T12:01:05;10.23;;;3.30;;
44694;SDS011;32845;59.422;17.930;2024-02-21T12:05:37;13.85;;;3.33;;
44694;SDS011;32845;59.422;17.930;2024-02-21T12:10:08;8.27;;;2.95;;
44694;SDS011;32845;59.422;17.930;2024-02-21T12:14:40;8.15;;;3.20;;
44694;SDS011;32845;59.422;17.930;2024-02-21T12:19:10;9.07;;;3.17;;
44694;SDS011;32845;59.422;17.930;2024-02-21T12:23:43;8.02;;;3.20;;
44694;SDS011;32845;59.422;17.930;2024-02-21T12:28:13;9.32;;;3.60;;
44694;SDS011;32845;59.422;17.930;2024-02-21T12:32:44;8.90;;;3.03;;
44694;SDS011;32845;59.422;17.930;2024-02-21T12:37:15;6.47;;;3.08;;
44694;SDS011;32845;59.422;17.930;2024-02-21T12:41:46;6.28;;;3.10;;
44694;SDS011;32845;59.422;17.930;2024-02-21T12:46:16;5.65;;;2.90;;
44694;SDS011;32845;59.422;17.930;2024-02-21T12:50:50;5.53;;;3.00;;
44694;SDS011;32845;59.422;17.930;2024-02-21T12:55:21;6.03;;;2.75;;
44694;SDS011;32845;59.422;17.930;2024-02-21T12:59:52;9.07;;;2.97;;
44694;SDS011;32845;59.422;17.930;2024-02-21T13:04:24;8.63;;;3.00;;
44694;SDS011;32845;59.422;17.930;2024-02-21T13:08:54;7.70;;;3.22;;
44694;SDS011;32845;59.422;17.930;2024-02-21T13:13:25;5.85;;;3.47;;
44694;SDS011;32845;59.422;17.930;2024-02-21T13:17:56;9.15;;;3.35;;
44694;SDS011;32845;59.422;17.930;2024-02-21T13:22:27;7.55;;;4.00;;
44694;SDS011;32845;59.422;17.930;2024-02-21T13:26:58;10.10;;;3.63;;
44694;SDS011;32845;59.422;17.930;2024-02-21T13:31:29;12.07;;;3.80;;
44694;SDS011;32845;59.422;17.930;2024-02-21T13:35:59;6.57;;;3.95;;
44694;SDS011;32845;59.422;17.930;2024-02-21T13:40:31;6.13;;;3.72;;
44694;SDS011;32845;59.422;17.930;2024-02-21T13:45:03;6.63;;;4.20;;
44694;SDS011;32845;59.422;17.930;2024-02-21T13:49:35;11.80;;;3.97;;
44694;SDS011;32845;59.422;17.930;2024-02-21T13:54:06;6.60;;;3.97;;
44694;SDS011;32845;59.422;17.930;2024-02-21T13:58:39;8.65;;;4.28;;
44694;SDS011;32845;59.422;17.930;2024-02-21T14:03:09;7.28;;;4.00;;
44694;SDS011;32845;59.422;17.930;2024-02-21T14:07:40;8.82;;;4.53;;
44694;SDS011;32845;59.422;17.930;2024-02-21T14:12:11;10.75;;;4.20;;
44694;SDS011;32845;59.422;17.930;2024-02-21T14:16:42;6.72;;;4.07;;
44694;SDS011;32845;59.422;17.930;2024-02-21T14:21:13;13.38;;;4.72;;
44694;SDS011;32845;59.422;17.930;2024-02-21T14:25:43;16.13;;;4.30;;
44694;SDS011;32845;59.422;17.930;2024-02-21T14:30:14;10.80;;;5.05;;
44694;SDS011;32845;59.422;17.930;2024-02-21T14:34:45;19.27;;;4.65;;
44694;SDS011;32845;59.422;17.930;2024-02-21T14:39:15;11.23;;;4.68;;
44694;SDS011;32845;59.422;17.930;2024-02-21T14:43:46;13.43;;;4.75;;
44694;SDS011;32845;59.422;17.930;2024-02-21T14:48:17;13.43;;;4.47;;
44694;SDS011;32845;59.422;17.930;2024-02-21T14:52:47;16.10;;;3.50;;
44694;SDS011;32845;59.422;17.930;2024-02-21T14:57:18;8.68;;;3.80;;
44694;SDS011;32845;59.422;17.930;2024-02-21T15:01:50;7.05;;;3.60;;
44694;SDS011;32845;59.422;17.930;2024-02-21T15:06:21;8.70;;;3.75;;
44694;SDS011;32845;59.422;17.930;2024-02-21T15:10:51;9.27;;;5.35;;
44694;SDS011;32845;59.422;17.930;2024-02-21T15:15:22;12.00;;;3.88;;
44694;SDS011;32845;59.422;17.930;2024-02-21T15:19:52;10.35;;;3.53;;
44694;SDS011;32845;59.422;17.930;2024-02-21T15:24:25;9.82;;;3.80;;
44694;SDS011;32845;59.422;17.930;2024-02-21T15:28:56;11.43;;;3.58;;
44694;SDS011;32845;59.422;17.930;2024-02-21T15:33:26;9.30;;;3.17;;
44694;SDS011;32845;59.422;17.930;2024-02-21T15:37:57;17.77;;;3.38;;
44694;SDS011;32845;59.422;17.930;2024-02-21T15:42:28;13.27;;;4.20;;
44694;SDS011;32845;59.422;17.930;2024-02-21T15:47:01;9.60;;;3.65;;
44694;SDS011;32845;59.422;17.930;2024-02-21T15:51:32;10.48;;;4.18;;
44694;SDS011;32845;59.422;17.930;2024-02-21T15:56:04;11.50;;;4.32;;
44694;SDS011;32845;59.422;17.930;2024-02-21T16:00:35;16.17;;;4.65;;
44694;SDS011;32845;59.422;17.930;2024-02-21T16:05:06;20.00;;;4.18;;
44694;SDS011;32845;59.422;17.930;2024-02-21T16:09:41;11.02;;;4.30;;
44694;SDS011;32845;59.422;17.930;2024-02-21T16:14:14;7.20;;;3.78;;
44694;SDS011;32845;59.422;17.930;2024-02-21T16:18:44;12.65;;;4.65;;
44694;SDS011;32845;59.422;17.930;2024-02-21T16:23:16;10.48;;;4.35;;
44694;SDS011;32845;59.422;17.930;2024-02-21T16:27:47;11.90;;;3.53;;
44694;SDS011;32845;59.422;17.930;2024-02-21T16:32:17;19.92;;;4.88;;
44694;SDS011;32845;59.422;17.930;2024-02-21T16:36:48;11.77;;;4.55;;
44694;SDS011;32845;59.422;17.930;2024-02-21T16:41:19;10.30;;;4.78;;
44694;SDS011;32845;59.422;17.930;2024-02-21T16:45:50;18.80;;;4.70;;
44694;SDS011;32845;59.422;17.930;2024-02-21T16:50:20;20.38;;;4.75;;
44694;SDS011;32845;59.422;17.930;2024-02-21T16:54:51;11.27;;;4.05;;
44694;SDS011;32845;59.422;17.930;2024-02-21T16:59:22;8.90;;;3.03;;
44694;SDS011;32845;59.422;17.930;2024-02-21T17:03:53;6.38;;;2.70;;
44694;SDS011;32845;59.422;17.930;2024-02-21T17:08:24;4.18;;;2.25;;
44694;SDS011;32845;59.422;17.930;2024-02-21T17:12:55;8.48;;;1.75;;
44694;SDS011;32845;59.422;17.930;2024-02-21T17:17:26;5.90;;;2.28;;
44694;SDS011;32845;59.422;17.930;2024-02-21T17:21:56;24.33;;;7.05;;
44694;SDS011;32845;59.422;17.930;2024-02-21T17:26:29;38.25;;;9.30;;
44694;SDS011;32845;59.422;17.930;2024-02-21T17:30:59;6.32;;;2.40;;
44694;SDS011;32845;59.422;17.930;2024-02-21T17:35:30;5.32;;;2.00;;
44694;SDS011;32845;59.422;17.930;2024-02-21T17:40:03;3.22;;;1.65;;
44694;SDS011;32845;59.422;17.930;2024-02-21T17:44:37;4.85;;;1.88;;
44694;SDS011;32845;59.422;17.930;2024-02-21T17:49:08;9.98;;;2.28;;
44694;SDS011;32845;59.422;17.930;2024-02-21T17:53:39;5.93;;;1.77;;
44694;SDS011;32845;59.422;17.930;2024-02-21T17:58:10;6.32;;;2.00;;
44694;SDS011;32845;59.422;17.930;2024-02-21T18:02:41;4.50;;;2.17;;
44694;SDS011;32845;59.422;17.930;2024-02-21T18:07:11;4.72;;;1.90;;
44694;SDS011;32845;59.422;17.930;2024-02-21T18:11:42;11.93;;;2.05;;
44694;SDS011;32845;59.422;17.930;2024-02-21T18:16:14;6.30;;;2.60;;
44694;SDS011;32845;59.422;17.930;2024-02-21T18:20:45;6.78;;;2.78;;
44694;SDS011;32845;59.422;17.930;2024-02-21T18:25:16;11.13;;;3.30;;
44694;SDS011;32845;59.422;17.930;2024-02-21T18:29:47;34.83;;;3.65;;
44694;SDS011;32845;59.422;17.930;2024-02-21T18:34:18;9.02;;;3.45;;
44694;SDS011;32845;59.422;17.930;2024-02-21T18:38:48;14.00;;;4.00;;
44694;SDS011;32845;59.422;17.930;2024-02-21T18:43:19;13.73;;;3.45;;
44694;SDS011;32845;59.422;17.930;2024-02-21T18:47:49;14.90;;;4.32;;
44694;SDS011;32845;59.422;17.930;2024-02-21T18:52:21;15.02;;;3.88;;
44694;SDS011;32845;59.422;17.930;2024-02-21T18:56:52;23.95;;;3.80;;
44694;SDS011;32845;59.422;17.930;2024-02-21T19:01:22;17.95;;;3.22;;
44694;SDS011;32845;59.422;17.930;2024-02-21T19:05:54;6.03;;;2.80;;
44694;SDS011;32845;59.422;17.930;2024-02-21T19:10:24;19.75;;;2.70;;
44694;SDS011;32845;59.422;17.930;2024-02-21T19:14:55;17.35;;;2.38;;
44694;SDS011;32845;59.422;17.930;2024-02-21T19:19:26;62.72;;;3.63;;
44694;SDS011;32845;59.422;17.930;2024-02-21T19:23:56;28.73;;;5.22;;
44694;SDS011;32845;59.422;17.930;2024-02-21T19:28:27;13.55;;;2.58;;
44694;SDS011;32845;59.422;17.930;2024-02-21T19:32:59;77.30;;;3.10;;
44694;SDS011;32845;59.422;17.930;2024-02-21T19:37:29;46.92;;;3.10;;
44694;SDS011;32845;59.422;17.930;2024-02-21T19:42:01;39.40;;;3.60;;
44694;SDS011;32845;59.422;17.930;2024-02-21T19:46:32;14.02;;;3.90;;
44694;SDS011;32845;59.422;17.930;2024-02-21T19:51:06;35.85;;;4.00;;
44694;SDS011;32845;59.422;17.930;2024-02-21T19:55:36;41.60;;;4.28;;
44694;SDS011;32845;59.422;17.930;2024-02-21T20:00:07;24.02;;;3.38;;
44694;SDS011;32845;59.422;17.930;2024-02-21T20:04:39;45.90;;;3.42;;
44694;SDS011;32845;59.422;17.930;2024-02-21T20:09:10;40.92;;;5.30;;
44694;SDS011;32845;59.422;17.930;2024-02-21T20:13:41;86.57;;;4.82;;
44694;SDS011;32845;59.422;17.930;2024-02-21T20:18:12;63.78;;;4.28;;
44694;SDS011;32845;59.422;17.930;2024-02-21T20:22:43;62.95;;;4.35;;
44694;SDS011;32845;59.422;17.930;2024-02-21T20:27:14;37.75;;;4.05;;
44694;SDS011;32845;59.422;17.930;2024-02-21T20:31:44;31.35;;;6.75;;
44694;SDS011;32845;59.422;17.930;2024-02-21T20:36:18;21.35;;;3.97;;
44694;SDS011;32845;59.422;17.930;2024-02-21T20:40:49;44.17;;;5.22;;
44694;SDS011;32845;59.422;17.930;2024-02-21T20:45:19;14.38;;;4.20;;
44694;SDS011;32845;59.422;17.930;2024-02-21T20:49:50;103.63;;;6.20;;
44694;SDS011;32845;59.422;17.930;2024-02-21T20:54:23;29.08;;;3.70;;
44694;SDS011;32845;59.422;17.930;2024-02-21T20:58:54;33.50;;;4.68;;
44694;SDS011;32845;59.422;17.930;2024-02-21T21:03:24;51.28;;;4.43;;
44694;SDS011;32845;59.422;17.930;2024-02-21T21:07:55;83.75;;;4.95;;
44694;SDS011;32845;59.422;17.930;2024-02-21T21:12:26;65.25;;;3.63;;
44694;SDS011;32845;59.422;17.930;2024-02-21T21:16:57;40.53;;;4.30;;
44694;SDS011;32845;59.422;17.930;2024-02-21T21:21:27;13.73;;;4.25;;
44694;SDS011;32845;59.422;17.930;2024-02-21T21:25:59;47.75;;;4.47;;
44694;SDS011;32845;59.422;17.930;2024-02-21T21:30:30;65.78;;;5.95;;
44694;SDS011;32845;59.422;17.930;2024-02-21T21:35:02;75.72;;;5.72;;
44694;SDS011;32845;59.422;17.930;2024-02-21T21:39:34;36.28;;;5.90;;
44694;SDS011;32845;59.422;17.930;2024-02-21T21:44:04;60.15;;;6.43;;
44694;SDS011;32845;59.422;17.930;2024-02-21T21:48:35;67.05;;;5.55;;
44694;SDS011;32845;59.422;17.930;2024-02-21T21:53:05;20.13;;;4.47;;
44694;SDS011;32845;59.422;17.930;2024-02-21T21:57:36;61.50;;;4.95;;
44694;SDS011;32845;59.422;17.930;2024-02-21T22:02:07;16.35;;;4.45;;
44694;SDS011;32845;59.422;17.930;2024-02-21T22:06:38;58.08;;;4.25;;
44694;SDS011;32845;59.422;17.930;2024-02-21T22:11:10;108.28;;;4.80;;
44694;SDS011;32845;59.422;17.930;2024-02-21T22:15:43;53.72;;;3.92;;
44694;SDS011;32845;59.422;17.930;2024-02-21T22:20:15;15.35;;;3.72;;
44694;SDS011;32845;59.422;17.930;2024-02-21T22:24:51;42.80;;;4.55;;
44694;SDS011;32845;59.422;17.930;2024-02-21T22:29:22;11.93;;;2.80;;
44694;SDS011;32845;59.422;17.930;2024-02-21T22:33:53;51.13;;;3.30;;
44694;SDS011;32845;59.422;17.930;2024-02-21T22:38:27;42.03;;;3.45;;
44694;SDS011;32845;59.422;17.930;2024-02-21T22:42:59;21.15;;;2.97;;
44694;SDS011;32845;59.422;17.930;2024-02-21T22:47:30;17.95;;;4.10;;
44694;SDS011;32845;59.422;17.930;2024-02-21T22:52:01;23.65;;;4.03;;
44694;SDS011;32845;59.422;17.930;2024-02-21T22:56:32;16.20;;;3.97;;
44694;SDS011;32845;59.422;17.930;2024-02-21T23:01:03;14.55;;;3.08;;
44694;SDS011;32845;59.422;17.930;2024-02-21T23:05:34;11.63;;;3.08;;
44694;SDS011;32845;59.422;17.930;2024-02-21T23:10:04;15.40;;;3.67;;
44694;SDS011;32845;59.422;17.930;2024-02-21T23:14:35;10.60;;;3.22;;
44694;SDS011;32845;59.422;17.930;2024-02-21T23:19:06;7.78;;;2.58;;
44694;SDS011;32845;59.422;17.930;2024-02-21T23:23:38;6.72;;;3.00;;
44694;SDS011;32845;59.422;17.930;2024-02-21T23:28:09;9.40;;;2.72;;
44694;SDS011;32845;59.422;17.930;2024-02-21T23:32:40;42.97;;;3.60;;
44694;SDS011;32845;59.422;17.930;2024-02-21T23:37:10;34.03;;;4.00;;
44694;SDS011;32845;59.422;17.930;2024-02-21T23:41:42;30.95;;;3.45;;
44694;SDS011;32845;59.422;17.930;2024-02-21T23:46:12;15.07;;;3.42;;
44694;SDS011;32845;59.422;17.930;2024-02-21T23:50:43;9.50;;;3.50;;
44694;SDS011;32845;59.422;17.930;2024-02-21T23:55:14;16.40;;;3.13;;
44694;SDS011;32845;59.422;17.930;2024-02-21T23:59:44;22.33;;;3.47;;
